Portada
METAR-TAF:

METAR-TAF

Aeroports :

Flores, Açores, Portugal

latitud: 39-27N, longitud: 031-08W, altitud: 28 m

Observació

L'informe es va fer fa 32 minuts, a les 07:30 UTC
Vent 6 kt del Sud, variant entre Sud/Sud-Est i Sud/Sud-Oest
Temperatura 17°C
Humitat 82%
Pressió 1020 hPa
Visibilitat 10 km o més
Escasses núvols a una alçada de 1800 ft
xàfecs en les proximitats,

METAR: LPFL 190730Z 18006KT 150V210 9999 VCSH FEW018 17/14 Q1020

Hora: 08:02 (08:02 UTC)

Pronòstic

L'informe es va fer fa 59 minuts, a les 07:03 UTC
Pronòstic vàlid del 19 a les 07 UTC al 19 a les 15 UTC
Vent 8 kt del Sud
Visibilitat 10 km o més
Núvols disperses a una alçada de 2000 ft
Evolucionant progressivament
l' 19 a les 09 UTC al 19 a les 12 UTC
Vent 15 kt del Sud-Oest
Núvols disperses a una alçada de 800 ft
Cel ennuvolat a una alçada de 1500 ft

TAF: LPFL 190703Z 1907/1915 18008KT 9999 SCT020 BECMG 1909/1912 22015KT SCT008 BKN015

Observacions i pronòstics meteorològics de més de 4000 aeroports (METAR i TAF).

Les estacions disponibles són els punts grocs i vermells al mapa.

Posi el ratolí al punt desitjat per veure el nom de l'estació.

Feu clic per veure les observacions i els pronòstics meteorològics.

Per canviar el mapa: feu clic els botons verds amb una creu de color negre per apropar; al botó verd amb un guió per allunyar la imatge; o en les fletxes verdes per a mapes adjacents.


METAR-TAF: